Time;durP1;ratioP1;P1;durP2;ratioP2;P2;SDS_P1;SDS_P2;PMS_P1;PMS_P2;Temp;Humidity;BMP_temperature;BMP_pressure;BME280_temperature;BME280_humidity;BME280_pressure;Samples;Min_cycle;Max_cycle;Signal;HPM_P1;HPM_P2
2021/01/11 00:00:20;;;;;;;15.90;10.23;;;;;;;1.84;64.13;101185.52;1719753;82;21483;-46
2021/01/11 00:02:49;;;;;;;18.27;11.90;;;;;;;1.83;63.98;101181.18;1719838;83;20898;-47
2021/01/11 00:05:17;;;;;;;16.25;10.78;;;;;;;1.84;64.03;101174.79;1719757;83;21211;-46
2021/01/11 00:07:44;;;;;;;15.25;10.35;;;;;;;1.88;63.77;101173.40;1719690;83;21937;-46
2021/01/11 00:10:14;;;;;;;14.95;9.83;;;;;;;1.84;63.74;101182.84;1719773;83;21546;-47
2021/01/11 00:12:44;;;;;;;16.02;10.10;;;;;;;1.79;63.85;101179.37;1719743;83;21594;-46
2021/01/11 00:15:13;;;;;;;14.58;9.83;;;;;;;1.75;63.93;101181.27;1719763;82;21159;-48
2021/01/11 00:17:43;;;;;;;15.32;9.83;;;;;;;1.71;64.03;101180.80;1719710;82;21383;-46
2021/01/11 00:20:12;;;;;;;17.20;11.18;;;;;;;1.70;64.06;101181.83;1719778;83;21017;-46
2021/01/11 00:22:43;;;;;;;15.25;10.10;;;;;;;1.69;64.10;101184.20;1719808;82;21037;-46
2021/01/11 00:25:12;;;;;;;16.75;10.43;;;;;;;1.68;64.00;101189.76;1719799;83;21036;-46
2021/01/11 00:27:41;;;;;;;14.43;10.28;;;;;;;1.65;64.12;101188.77;1719673;83;21008;-47
2021/01/11 00:30:11;;;;;;;16.10;10.72;;;;;;;1.64;64.11;101192.48;1719747;83;21219;-46
2021/01/11 00:32:39;;;;;;;16.67;10.03;;;;;;;1.61;64.15;101199.03;1719709;82;20957;-47
2021/01/11 00:35:09;;;;;;;16.85;10.28;;;;;;;1.58;64.22;101195.91;1719752;83;21464;-46
2021/01/11 00:37:36;;;;;;;15.13;10.18;;;;;;;1.55;64.35;101190.39;1719716;83;21515;-46
2021/01/11 00:40:06;;;;;;;14.45;9.80;;;;;;;1.54;64.34;101188.22;1719822;83;20938;-47
2021/01/11 00:42:35;;;;;;;14.73;10.03;;;;;;;1.53;64.28;101191.93;1719749;82;22604;-47
2021/01/11 00:45:08;;;;;;;15.15;10.38;;;;;;;1.51;64.27;101191.27;1719688;83;21065;-46
2021/01/11 00:47:40;;;;;;;13.25;9.98;;;;;;;1.49;64.28;101197.84;1720144;83;20929;-46
2021/01/11 00:50:10;;;;;;;15.32;10.05;;;;;;;1.46;64.27;101195.01;1693895;83;20945;-46
2021/01/11 00:52:39;;;;;;;15.55;10.50;;;;;;;1.45;64.37;101199.22;1693738;83;20953;-47
2021/01/11 00:55:09;;;;;;;14.53;9.55;;;;;;;1.43;64.36;101192.72;1720472;82;22388;-47
2021/01/11 00:57:41;;;;;;;13.78;9.35;;;;;;;1.42;64.40;101202.27;1720166;82;20949;-47
2021/01/11 01:00:13;;;;;;;12.73;8.60;;;;;;;1.40;64.37;101202.45;1694438;83;21001;-48
2021/01/11 01:02:44;;;;;;;14.58;9.75;;;;;;;1.39;64.37;101198.12;1718409;83;21026;-47
2021/01/11 01:05:13;;;;;;;14.80;9.63;;;;;;;1.37;64.37;101193.45;1719923;82;21005;-47
2021/01/11 01:07:43;;;;;;;14.60;9.75;;;;;;;1.34;64.39;101192.47;1719877;83;21377;-48
2021/01/11 01:10:11;;;;;;;14.03;9.73;;;;;;;1.33;64.41;101193.50;1720000;83;21567;-47
2021/01/11 01:12:41;;;;;;;13.38;8.20;;;;;;;1.32;64.43;101192.31;1719945;83;21032;-48
2021/01/11 01:15:10;;;;;;;15.95;9.60;;;;;;;1.30;64.48;101193.84;1719925;83;21015;-48
2021/01/11 01:17:42;;;;;;;16.10;9.90;;;;;;;1.26;64.52;101201.93;1719978;83;20989;-48
2021/01/11 01:20:18;;;;;;;13.45;8.98;;;;;;;1.23;64.59;101205.00;1719923;83;21432;-48
2021/01/11 01:22:47;;;;;;;14.83;9.90;;;;;;;1.22;64.61;101203.34;1719920;82;21015;-48
2021/01/11 01:25:15;;;;;;;13.95;8.43;;;;;;;1.22;64.59;101206.02;1719960;83;21031;-48
2021/01/11 01:27:43;;;;;;;13.62;9.23;;;;;;;1.21;64.57;101202.48;1719899;83;20992;-47
2021/01/11 01:30:12;;;;;;;13.75;9.30;;;;;;;1.22;64.56;101212.20;1719950;83;21586;-47
2021/01/11 01:32:41;;;;;;;13.68;10.10;;;;;;;1.22;64.50;101216.73;1719932;83;21385;-46
2021/01/11 01:35:11;;;;;;;15.75;9.85;;;;;;;1.19;64.52;101213.91;1719890;83;21021;-46
2021/01/11 01:37:39;;;;;;;15.03;10.18;;;;;;;1.16;64.57;101210.23;1720015;83;21618;-46
2021/01/11 01:40:08;;;;;;;16.60;10.80;;;;;;;1.10;64.63;101214.98;1719909;83;20961;-45
2021/01/11 01:42:36;;;;;;;15.18;9.85;;;;;;;1.04;64.71;101207.17;1719936;83;21081;-46
2021/01/11 01:45:07;;;;;;;14.18;10.38;;;;;;;0.98;64.85;101207.91;1720021;83;21441;-47
2021/01/11 01:47:34;;;;;;;14.98;9.33;;;;;;;0.95;64.95;101212.27;1710972;83;21084;-47
2021/01/11 01:50:05;;;;;;;15.43;10.13;;;;;;;0.95;64.99;101218.97;1706413;83;20986;-47
2021/01/11 01:52:38;;;;;;;13.65;9.18;;;;;;;0.96;65.06;101227.84;1706512;84;21582;-48
2021/01/11 01:55:07;;;;;;;13.25;9.35;;;;;;;0.97;65.05;101226.85;1706497;82;20915;-49
2021/01/11 01:57:35;;;;;;;15.90;10.53;;;;;;;0.95;65.04;101237.73;1686607;84;21368;-46
2021/01/11 02:00:06;;;;;;;16.02;10.35;;;;;;;0.94;64.99;101235.23;1706436;84;20966;-46
2021/01/11 02:02:35;;;;;;;16.67;11.00;;;;;;;0.92;64.96;101236.77;1706089;83;21064;-47
2021/01/11 02:05:07;;;;;;;13.38;9.43;;;;;;;0.92;65.00;101235.94;1706361;84;21002;-46
2021/01/11 02:07:59;;;;;;;17.50;11.08;;;;;;;0.91;64.98;101228.41;1706416;84;20911;-46
2021/01/11 02:10:56;;;;;;;14.98;9.98;;;;;;;0.91;64.95;101239.12;1706445;83;22520;-46
2021/01/11 02:13:51;;;;;;;16.45;10.90;;;;;;;0.88;64.92;101239.47;1706298;84;21933;-47
2021/01/11 02:16:58;;;;;;;16.02;10.75;;;;;;;0.89;64.93;101235.77;1706360;84;20954;-46
2021/01/11 02:20:12;;;;;;;13.70;9.23;;;;;;;0.90;64.87;101236.60;1706524;84;21503;-46
2021/01/11 02:23:02;;;;;;;14.13;8.95;;;;;;;0.90;64.91;101241.45;1706348;83;21607;-47
2021/01/11 02:25:53;;;;;;;15.45;9.95;;;;;;;0.90;64.83;101228.56;1705921;83;21580;-47
2021/01/11 02:29:03;;;;;;;13.98;9.23;;;;;;;0.86;64.63;101217.37;1706343;83;21229;-47
2021/01/11 02:31:31;;;;;;;13.15;8.93;;;;;;;0.81;64.60;101210.89;1706335;84;20985;-46
2021/01/11 02:33:59;;;;;;;15.75;10.63;;;;;;;0.74;64.52;101192.03;1706394;82;21219;-46
2021/01/11 02:36:27;;;;;;;18.37;10.28;;;;;;;0.70;64.54;101193.40;1706382;84;21057;-46
2021/01/11 02:38:55;;;;;;;13.13;9.05;;;;;;;0.65;64.58;101185.07;1706360;84;21181;-47
2021/01/11 02:41:23;;;;;;;15.23;9.78;;;;;;;0.63;64.56;101180.41;1706331;84;21153;-46
2021/01/11 02:43:50;;;;;;;15.35;10.23;;;;;;;0.59;64.59;101175.91;1706310;84;20974;-46
2021/01/11 02:46:18;;;;;;;15.45;10.40;;;;;;;0.55;64.60;101179.95;1706292;83;20939;-47
2021/01/11 02:48:54;;;;;;;15.35;10.00;;;;;;;0.54;64.77;101182.31;1685188;83;20922;-47
2021/01/11 02:51:27;;;;;;;15.83;9.93;;;;;;;0.57;64.92;101183.81;1711208;83;21347;-46
2021/01/11 02:54:17;;;;;;;18.15;9.83;;;;;;;0.61;64.84;101183.76;1711058;82;21050;-47
2021/01/11 02:57:01;;;;;;;17.15;11.18;;;;;;;0.59;64.85;101179.93;1711209;83;20950;-48
2021/01/11 02:59:48;;;;;;;16.90;11.25;;;;;;;0.56;64.84;101181.64;1688625;83;20961;-47
2021/01/11 03:02:17;;;;;;;14.85;9.38;;;;;;;0.51;64.95;101182.18;1711179;83;20930;-46
2021/01/11 03:04:45;;;;;;;15.83;10.55;;;;;;;0.51;64.91;101186.70;1685349;83;21233;-47
2021/01/11 03:07:12;;;;;;;14.83;10.58;;;;;;;0.52;64.97;101188.36;1685064;83;21553;-47
2021/01/11 03:09:42;;;;;;;14.55;9.83;;;;;;;0.55;64.90;101192.52;1711116;83;20989;-47
2021/01/11 03:12:12;;;;;;;16.02;10.55;;;;;;;0.54;64.87;101189.52;1711167;83;20954;-47
2021/01/11 03:14:40;;;;;;;16.17;10.43;;;;;;;0.50;64.89;101192.54;1685025;83;21618;-48
2021/01/11 03:17:09;;;;;;;15.98;11.90;;;;;;;0.50;64.84;101201.91;1711213;83;21214;-49
2021/01/11 03:19:37;;;;;;;16.57;10.75;;;;;;;0.51;64.73;101204.94;1711115;83;21500;-46
2021/01/11 03:22:04;;;;;;;17.35;11.03;;;;;;;0.51;64.59;101204.11;1711149;83;20998;-47
2021/01/11 03:24:32;;;;;;;15.20;10.90;;;;;;;0.52;64.44;101207.11;1711128;83;21018;-47
2021/01/11 03:27:00;;;;;;;16.45;10.48;;;;;;;0.49;64.31;101206.11;1711148;83;21104;-47
2021/01/11 03:29:27;;;;;;;15.55;10.58;;;;;;;0.46;64.32;101211.84;1711108;83;21122;-47
2021/01/11 03:31:55;;;;;;;16.87;10.58;;;;;;;0.44;64.29;101220.54;1711129;83;20946;-48
2021/01/11 03:34:23;;;;;;;16.75;10.08;;;;;;;0.39;64.27;101223.75;1711127;83;20966;-47
2021/01/11 03:36:51;;;;;;;19.42;11.40;;;;;;;0.34;64.37;101221.27;1711120;82;21594;-46
2021/01/11 03:39:21;;;;;;;16.73;10.45;;;;;;;0.31;64.56;101234.52;1711162;83;20907;-47
2021/01/11 03:41:49;;;;;;;19.23;12.00;;;;;;;0.33;64.74;101230.33;1711188;82;21370;-47
2021/01/11 03:44:17;;;;;;;18.27;11.48;;;;;;;0.40;64.88;101235.28;1711071;83;21989;-48
2021/01/11 03:46:45;;;;;;;20.90;13.30;;;;;;;0.53;64.87;101234.72;1711136;82;20945;-48
2021/01/11 03:49:12;;;;;;;17.87;11.53;;;;;;;0.59;64.85;101220.09;1719840;83;21606;-47
2021/01/11 03:51:40;;;;;;;17.57;11.55;;;;;;;0.58;64.68;101219.78;1719873;83;21040;-47
2021/01/11 03:54:08;;;;;;;17.80;11.90;;;;;;;0.59;64.70;101222.77;1719782;82;21520;-48
2021/01/11 03:56:36;;;;;;;19.32;11.95;;;;;;;0.59;64.85;101220.09;1719816;82;21587;-47
2021/01/11 03:59:04;;;;;;;20.20;12.50;;;;;;;0.61;64.85;101215.89;1719840;83;20989;-47
2021/01/11 04:01:36;;;;;;;20.45;11.83;;;;;;;0.57;64.87;101206.07;1719806;83;21021;-47
2021/01/11 04:04:04;;;;;;;19.42;11.22;;;;;;;0.63;64.79;101219.24;1719884;83;20949;-47
2021/01/11 04:06:32;;;;;;;18.92;11.50;;;;;;;0.62;64.81;101226.96;1719792;83;21277;-47
2021/01/11 04:08:59;;;;;;;16.62;11.70;;;;;;;0.63;64.85;101232.64;1719823;83;21194;-46
2021/01/11 04:11:27;;;;;;;21.62;12.58;;;;;;;0.66;64.87;101237.62;1719817;83;20961;-46
2021/01/11 04:13:55;;;;;;;19.75;12.10;;;;;;;0.67;64.96;101244.16;1719891;83;21471;-47
2021/01/11 04:16:23;;;;;;;18.32;12.05;;;;;;;0.70;65.04;101240.27;1719796;83;21139;-46
2021/01/11 04:18:50;;;;;;;23.32;14.10;;;;;;;0.72;65.04;101247.13;1719802;83;21211;-47
2021/01/11 04:21:18;;;;;;;19.48;13.10;;;;;;;0.76;64.99;101248.92;1719752;83;20957;-47
2021/01/11 04:23:46;;;;;;;21.70;13.53;;;;;;;0.82;64.97;101253.59;1719787;83;21192;-47
2021/01/11 04:26:13;;;;;;;19.77;12.85;;;;;;;0.82;64.89;101254.94;1719869;83;20993;-47
2021/01/11 04:28:41;;;;;;;18.62;12.23;;;;;;;0.83;64.86;101249.89;1719800;83;21017;-46
2021/01/11 04:31:10;;;;;;;19.73;12.65;;;;;;;0.83;64.89;101244.54;1719799;83;21426;-47
2021/01/11 04:33:38;;;;;;;15.83;11.57;;;;;;;0.86;64.88;101243.33;1719797;83;20966;-48
2021/01/11 04:36:07;;;;;;;19.12;12.47;;;;;;;0.89;64.85;101248.34;1719916;83;21219;-47
2021/01/11 04:38:34;;;;;;;18.98;12.43;;;;;;;0.88;64.85;101242.16;1719946;83;21508;-48
2021/01/11 04:41:05;;;;;;;22.98;13.65;;;;;;;0.89;64.92;101249.17;1719956;83;21120;-48
2021/01/11 04:43:38;;;;;;;19.90;11.95;;;;;;;0.91;65.02;101245.83;1720001;83;21402;-46
2021/01/11 04:46:06;;;;;;;19.30;12.63;;;;;;;0.95;64.99;101239.06;1719925;83;21087;-47
2021/01/11 04:48:34;;;;;;;21.35;13.43;;;;;;;0.99;64.99;101237.70;1719747;82;21143;-47
2021/01/11 04:51:02;;;;;;;21.82;12.55;;;;;;;1.08;64.96;101243.00;1720016;83;21598;-46
2021/01/11 04:53:29;;;;;;;19.45;12.35;;;;;;;1.12;64.89;101237.61;1719945;82;21085;-47
2021/01/11 04:55:58;;;;;;;19.65;12.15;;;;;;;1.14;64.91;101239.08;1719951;83;21374;-47
2021/01/11 04:58:27;;;;;;;19.20;12.63;;;;;;;1.10;64.98;101239.11;1693281;83;21540;-47
2021/01/11 05:00:58;;;;;;;20.05;12.50;;;;;;;1.08;65.01;101233.63;1693730;83;21456;-46
2021/01/11 05:03:25;;;;;;;21.30;13.22;;;;;;;1.11;65.07;101238.09;1694228;83;20969;-47
2021/01/11 05:05:53;;;;;;;20.55;13.00;;;;;;;1.20;65.09;101238.86;1719952;83;21150;-47
2021/01/11 05:08:20;;;;;;;22.55;13.38;;;;;;;1.30;64.93;101235.41;1719916;83;21217;-47
2021/01/11 05:10:48;;;;;;;21.45;12.78;;;;;;;1.36;64.85;101234.67;1719893;83;21111;-48
2021/01/11 05:13:16;;;;;;;20.10;12.88;;;;;;;1.43;64.57;101232.11;1719889;82;20929;-48
2021/01/11 05:15:44;;;;;;;20.80;11.97;;;;;;;1.40;64.55;101229.27;1719895;83;21646;-47
2021/01/11 05:18:19;;;;;;;22.60;14.45;;;;;;;1.34;64.70;101231.35;1719935;83;21147;-46
2021/01/11 05:20:47;;;;;;;26.10;14.40;;;;;;;1.31;64.71;101231.70;1720197;83;21524;-48
2021/01/11 05:23:16;;;;;;;23.18;14.55;;;;;;;1.31;64.71;101231.70;1719847;83;21787;-47
2021/01/11 05:25:45;;;;;;;20.02;12.65;;;;;;;1.39;64.79;101228.95;1719946;82;20970;-46
2021/01/11 05:28:17;;;;;;;20.57;12.68;;;;;;;1.45;64.60;101239.45;1719854;83;21609;-49
2021/01/11 05:30:50;;;;;;;20.60;13.55;;;;;;;1.45;64.59;101238.94;1719906;83;21491;-47
2021/01/11 05:33:26;;;;;;;29.15;13.80;;;;;;;1.44;64.64;101240.47;1719991;83;21385;-46
2021/01/11 05:36:12;;;;;;;22.75;13.62;;;;;;;1.43;64.72;101241.50;1719946;83;21471;-48
2021/01/11 05:38:46;;;;;;;24.00;13.53;;;;;;;1.47;64.99;101246.31;1719699;83;21171;-50
2021/01/11 05:41:17;;;;;;;21.40;13.22;;;;;;;1.54;64.97;101250.42;1719844;83;21008;-50
2021/01/11 05:43:49;;;;;;;25.12;13.78;;;;;;;1.58;64.70;101242.85;1719899;83;21100;-49
2021/01/11 05:46:28;;;;;;;22.77;13.55;;;;;;;1.58;64.62;101249.05;1693435;83;21484;-48
2021/01/11 05:49:05;;;;;;;23.67;13.43;;;;;;;1.57;64.65;101251.38;1719672;83;21794;-49
2021/01/11 05:51:34;;;;;;;26.02;14.90;;;;;;;1.56;64.81;101251.89;1719890;82;20973;-48
2021/01/11 05:54:02;;;;;;;24.65;14.40;;;;;;;1.56;64.85;101246.52;1719841;82;21037;-49
2021/01/11 05:56:56;;;;;;;24.80;14.73;;;;;;;1.59;64.75;101248.53;1719941;83;21202;-49
2021/01/11 05:59:26;;;;;;;25.82;14.47;;;;;;;1.59;64.68;101252.55;1719871;83;21459;-47
2021/01/11 06:02:00;;;;;;;23.40;13.75;;;;;;;1.61;64.60;101255.88;1719837;83;21579;-47
2021/01/11 06:04:29;;;;;;;20.90;13.65;;;;;;;1.62;64.59;101257.53;1719906;83;20965;-48
2021/01/11 06:06:57;;;;;;;22.58;13.85;;;;;;;1.59;64.59;101255.24;1670651;83;21113;-47
2021/01/11 06:09:25;;;;;;;23.87;14.65;;;;;;;1.57;64.59;101263.45;1719925;83;21526;-49
2021/01/11 06:11:53;;;;;;;22.55;14.05;;;;;;;1.54;64.58;101259.30;1719836;82;21360;-50
2021/01/11 06:14:21;;;;;;;24.02;13.90;;;;;;;1.58;64.68;101264.31;1670572;83;21155;-50
2021/01/11 06:16:49;;;;;;;21.12;15.15;;;;;;;1.63;64.60;101273.47;1719872;83;20942;-50
2021/01/11 06:19:16;;;;;;;25.72;15.18;;;;;;;1.66;64.39;101278.45;1719850;82;20934;-50
2021/01/11 06:21:50;;;;;;;23.27;17.15;;;;;;;1.66;64.21;101278.45;1719870;83;21147;-49
2021/01/11 06:24:19;;;;;;;26.60;16.93;;;;;;;1.65;64.12;101274.11;1706220;83;21356;-51
2021/01/11 06:26:48;;;;;;;22.85;16.42;;;;;;;1.68;64.19;101278.28;1687920;83;21503;-50
2021/01/11 06:29:33;;;;;;;24.95;17.32;;;;;;;1.70;64.36;101273.55;1685894;83;21160;-50
2021/01/11 06:32:21;;;;;;;26.93;17.70;;;;;;;1.78;64.32;101268.11;1690984;84;21272;-49
2021/01/11 06:34:49;;;;;;;28.70;18.27;;;;;;;1.84;64.24;101270.05;1701507;83;21511;-52
2021/01/11 06:37:23;;;;;;;21.37;15.35;;;;;;;1.90;64.20;101272.50;1700355;83;21341;-51
2021/01/11 06:39:53;;;;;;;20.52;14.43;;;;;;;1.91;64.00;101272.81;1702885;83;21190;-52
2021/01/11 06:42:21;;;;;;;24.25;14.20;;;;;;;1.88;63.81;101269.18;1675393;83;21025;-51
2021/01/11 06:44:49;;;;;;;23.15;14.93;;;;;;;1.87;63.84;101266.14;1703044;83;21194;-52
2021/01/11 06:47:28;;;;;;;22.02;14.10;;;;;;;1.87;63.97;101272.34;1701318;83;21119;-52
2021/01/11 06:50:07;;;;;;;23.60;14.50;;;;;;;1.88;63.86;101261.13;1700990;83;22124;-53
2021/01/11 06:52:36;;;;;;;19.07;12.93;;;;;;;1.91;63.89;101266.94;1700558;82;21146;-52
2021/01/11 06:55:14;;;;;;;25.45;14.55;;;;;;;1.91;63.63;101266.94;1699770;82;21619;-52
2021/01/11 06:57:48;;;;;;;23.42;13.55;;;;;;;1.88;63.64;101268.67;1701301;83;21159;-52
2021/01/11 07:00:19;;;;;;;25.97;16.55;;;;;;;1.88;63.79;101266.49;1700352;83;21546;-54
2021/01/11 07:02:46;;;;;;;27.50;17.60;;;;;;;1.87;63.93;101264.80;1699275;83;21380;-53
2021/01/11 07:05:36;;;;;;;24.75;16.35;;;;;;;1.85;64.16;101264.17;1702175;83;21618;-52
2021/01/11 07:11:04;;;;;;;27.60;17.00;;;;;;;1.85;64.09;101260.14;1866961;76;22826;-53
2021/01/11 07:13:32;;;;;;;23.05;15.95;;;;;;;1.84;64.19;101267.36;1841855;77;21107;-52
2021/01/11 07:16:10;;;;;;;26.80;15.68;;;;;;;1.85;64.27;101262.83;1833988;77;21360;-54
2021/01/11 07:18:44;;;;;;;25.30;15.50;;;;;;;1.77;64.25;101260.58;1827735;77;21020;-54
2021/01/11 07:21:17;;;;;;;26.27;16.52;;;;;;;1.72;64.39;101265.62;1830559;77;20923;-57
2021/01/11 07:23:45;;;;;;;25.15;15.60;;;;;;;1.71;64.55;101262.62;1835963;77;20989;-56
2021/01/11 07:26:22;;;;;;;24.43;14.78;;;;;;;1.80;64.65;101270.09;1831068;77;21052;-57
2021/01/11 07:29:07;;;;;;;27.05;15.65;;;;;;;1.87;64.71;101272.34;1836010;77;21181;-54
2021/01/11 07:31:39;;;;;;;24.55;15.83;;;;;;;1.93;64.49;101266.26;1826746;78;21020;-57
2021/01/11 07:34:14;;;;;;;24.45;15.70;;;;;;;1.95;64.42;101262.03;1826908;78;20973;-58
2021/01/11 07:36:49;;;;;;;23.83;14.90;;;;;;;1.90;64.29;101261.77;1826410;77;21431;-53
2021/01/11 07:39:31;;;;;;;22.15;15.08;;;;;;;1.87;64.22;101263.46;1826964;78;21151;-55
2021/01/11 07:42:04;;;;;;;27.62;18.92;;;;;;;1.87;64.38;101275.54;1841692;76;21383;-55
2021/01/11 07:44:35;;;;;;;26.17;16.93;;;;;;;1.86;64.54;101268.52;1826526;78;21585;-56
2021/01/11 07:47:13;;;;;;;28.30;18.15;;;;;;;1.86;64.81;101277.39;1828987;77;21581;-51
2021/01/11 07:49:43;;;;;;;29.20;18.27;;;;;;;1.84;64.86;101278.61;1792390;78;21127;-57
2021/01/11 07:52:17;;;;;;;30.27;18.82;;;;;;;1.82;64.99;101273.41;1806811;78;21535;-55
2021/01/11 07:54:45;;;;;;;26.62;16.90;;;;;;;1.83;64.99;101272.41;1783407;78;21347;-53
2021/01/11 07:57:15;;;;;;;22.27;14.87;;;;;;;1.87;64.96;101273.69;1802120;78;21152;-58
2021/01/11 07:59:43;;;;;;;23.92;14.47;;;;;;;1.92;64.98;101270.45;1780202;80;20988;-55
2021/01/11 08:02:13;;;;;;;27.20;16.30;;;;;;;2.00;65.05;101277.07;1792847;78;21052;-51
2021/01/11 08:04:42;;;;;;;29.15;17.37;;;;;;;2.04;64.77;101283.23;1796045;79;21415;-51
2021/01/11 08:07:11;;;;;;;26.37;17.98;;;;;;;2.11;64.81;101283.30;1796162;79;22202;-55
2021/01/11 08:09:41;;;;;;;24.43;16.10;;;;;;;2.13;64.64;101284.45;1791034;79;21186;-54
2021/01/11 08:12:15;;;;;;;23.27;14.47;;;;;;;2.11;64.68;101278.45;1788887;79;21486;-56
2021/01/11 08:14:45;;;;;;;20.50;13.72;;;;;;;2.15;64.26;101281.09;1792880;79;20989;-55
2021/01/11 08:17:18;;;;;;;25.75;15.18;;;;;;;2.16;64.18;101290.29;1792897;80;21185;-54
2021/01/11 08:19:52;;;;;;;22.90;15.10;;;;;;;2.20;64.09;101289.42;1793045;80;21370;-55
2021/01/11 08:22:21;;;;;;;25.72;15.50;;;;;;;2.20;64.21;101289.42;1792498;80;21567;-51
2021/01/11 08:24:52;;;;;;;26.15;14.90;;;;;;;2.20;64.17;101291.59;1784763;80;21154;-58
2021/01/11 08:27:44;;;;;;;22.60;14.85;;;;;;;2.24;64.32;101298.77;1772787;79;21720;-58
2021/01/11 08:30:16;;;;;;;20.43;13.88;;;;;;;2.26;64.09;101295.38;1787422;80;21118;-56
2021/01/11 08:32:45;;;;;;;25.62;14.13;;;;;;;2.27;63.90;101299.20;1775973;80;21403;-56
2021/01/11 08:35:24;;;;;;;25.30;15.72;;;;;;;2.27;63.80;101301.06;1765885;81;21098;-59
2021/01/11 08:38:00;;;;;;;19.50;12.43;;;;;;;2.27;63.78;101303.23;1795538;79;21211;-57
2021/01/11 08:40:29;;;;;;;20.17;11.45;;;;;;;2.27;63.88;101305.09;1787468;79;21160;-54
2021/01/11 08:43:23;;;;;;;18.90;11.97;;;;;;;2.31;63.81;101308.56;1756336;80;21182;-63
2021/01/11 08:45:56;;;;;;;21.68;13.05;;;;;;;2.34;63.73;101296.11;1747023;80;21396;-58
2021/01/11 08:48:25;;;;;;;23.83;13.18;;;;;;;2.39;63.75;101296.06;1753071;80;21125;-57
2021/01/11 08:50:57;;;;;;;21.45;13.18;;;;;;;2.42;63.63;101289.78;1788254;80;21088;-56
2021/01/11 08:53:38;;;;;;;28.25;16.05;;;;;;;2.40;63.25;101293.69;1786840;80;22111;-57
2021/01/11 08:56:10;;;;;;;25.20;15.08;;;;;;;2.41;63.19;101300.20;1776205;80;21199;-59
2021/01/11 08:58:48;;;;;;;28.23;15.30;;;;;;;2.41;63.04;101299.38;1776694;80;21812;-60
2021/01/11 09:01:22;;;;;;;27.15;16.77;;;;;;;2.35;63.08;101295.59;1786240;80;21218;-53
2021/01/11 09:03:56;;;;;;;24.12;14.98;;;;;;;2.30;63.23;101310.92;1773687;80;21134;-57
2021/01/11 09:06:47;;;;;;;21.10;13.68;;;;;;;2.25;63.34;101311.17;1766675;80;20988;-56
2021/01/11 09:09:17;;;;;;;23.12;15.90;;;;;;;2.24;63.36;101306.83;1767430;79;21589;-57
2021/01/11 09:11:47;;;;;;;21.23;14.23;;;;;;;2.24;63.45;101304.14;1787514;79;22263;-56
2021/01/11 09:14:16;;;;;;;23.27;14.35;;;;;;;2.21;63.53;101295.10;1785309;79;21043;-59
2021/01/11 09:16:46;;;;;;;21.52;13.38;;;;;;;2.22;63.65;101290.87;1755249;79;21043;-56
2021/01/11 09:19:18;;;;;;;23.80;14.90;;;;;;;2.24;63.72;101297.42;1781252;79;21089;-56
2021/01/11 09:22:15;;;;;;;22.27;12.50;;;;;;;2.26;63.90;101290.00;1797410;79;21167;-53
2021/01/11 09:24:36;;;;;;;23.60;14.38;;;;;;;2.25;63.64;101285.66;1770579;79;21408;-54
2021/01/11 09:27:03;;;;;;;27.52;16.62;;;;;;;2.22;63.92;101284.67;1770669;79;22073;-52
2021/01/11 09:29:33;;;;;;;25.35;16.55;;;;;;;2.27;64.02;101286.29;1775734;79;21027;-53
2021/01/11 09:32:01;;;;;;;28.62;18.55;;;;;;;2.33;64.18;101283.70;1791895;79;22470;-56
2021/01/11 09:34:29;;;;;;;30.10;19.48;;;;;;;2.42;64.26;101284.92;1797134;79;21035;-65
2021/01/11 09:36:57;;;;;;;33.15;20.15;;;;;;;2.49;64.05;101280.48;1777457;79;22396;-64
2021/01/11 09:39:26;;;;;;;37.40;19.82;;;;;;;2.53;63.99;101271.83;1798569;79;21194;-70
2021/01/11 09:41:56;;;;;;;38.95;23.15;;;;;;;2.58;63.45;101273.42;1784660;79;21164;-66
2021/01/11 09:44:24;;;;;;;35.10;20.27;;;;;;;2.59;63.34;101269.75;1788223;80;21179;-69
2021/01/11 09:46:55;;;;;;;34.05;20.65;;;;;;;2.63;63.09;101272.03;1788531;80;21631;-63
2021/01/11 09:49:24;;;;;;;36.15;21.87;;;;;;;2.65;62.96;101268.66;1788967;80;21297;-66
2021/01/11 09:51:52;;;;;;;33.38;22.05;;;;;;;2.65;62.94;101270.00;1789280;80;21016;-63
2021/01/11 09:54:21;;;;;;;24.60;14.55;;;;;;;2.64;63.10;101265.66;1754832;79;21076;-67
2021/01/11 09:56:50;;;;;;;25.12;16.77;;;;;;;2.64;62.66;101264.31;1768765;81;21489;-64
2021/01/11 09:59:18;;;;;;;29.20;15.98;;;;;;;2.66;62.86;101272.49;1738913;81;21210;-64
2021/01/11 10:01:48;;;;;;;29.48;17.23;;;;;;;2.68;62.44;101267.75;1768844;81;21197;-68
2021/01/11 10:04:18;;;;;;;22.87;14.78;;;;;;;2.67;62.54;101268.77;1768700;81;21237;-67
2021/01/11 10:06:53;;;;;;;27.07;17.02;;;;;;;2.66;62.65;101260.41;1768608;81;21170;-73
2021/01/11 10:09:24;;;;;;;28.85;17.98;;;;;;;2.69;62.86;101268.61;1768763;81;21190;-64
2021/01/11 10:11:57;;;;;;;32.70;19.07;;;;;;;2.72;62.96;101266.34;1768574;81;21578;-63
2021/01/11 10:14:26;;;;;;;29.12;18.32;;;;;;;2.71;62.92;101264.69;1768758;81;21197;-75
2021/01/11 10:16:59;;;;;;;29.77;16.93;;;;;;;2.72;63.12;101256.12;1768629;81;21052;-72
2021/01/11 10:19:29;;;;;;;25.62;16.60;;;;;;;2.76;63.27;101253.38;1766510;81;21200;-74
2021/01/11 10:24:43;;;;;;;20.90;13.13;;;;;;;2.88;62.50;101248.31;1873172;75;23938;-63
2021/01/11 10:27:11;;;;;;;22.90;13.70;;;;;;;2.81;62.10;101245.05;1840418;77;20920;-64
2021/01/11 10:29:40;;;;;;;22.80;13.38;;;;;;;2.77;62.04;101235.70;1843477;77;21194;-66
2021/01/11 10:32:09;;;;;;;20.72;13.30;;;;;;;2.77;62.03;101241.59;1838827;77;21019;-70
2021/01/11 10:34:37;;;;;;;18.98;12.00;;;;;;;2.77;61.97;101238.39;1811390;78;21573;-67
2021/01/11 10:37:06;;;;;;;20.65;13.32;;;;;;;2.79;61.85;101239.56;1830727;77;21014;-68
2021/01/11 10:39:34;;;;;;;18.92;10.60;;;;;;;2.74;61.64;101238.80;1840404;78;21049;-66
2021/01/11 10:42:02;;;;;;;18.60;10.63;;;;;;;2.68;61.39;101229.30;1757247;81;21262;-67
2021/01/11 10:44:30;;;;;;;16.12;9.73;;;;;;;2.72;61.29;101245.37;1772485;79;20994;-68
2021/01/11 10:47:00;;;;;;;19.90;10.00;;;;;;;2.69;61.38;101243.08;1772617;80;21052;-71
2021/01/11 10:49:29;;;;;;;16.23;9.70;;;;;;;2.66;61.17;101237.56;1757929;81;21044;-79
2021/01/11 10:51:58;;;;;;;16.95;9.20;;;;;;;2.67;61.26;101239.22;1754601;80;21175;-67
2021/01/11 10:54:26;;;;;;;13.58;9.00;;;;;;;2.72;61.67;101234.62;1744290;80;22752;-59
2021/01/11 10:56:55;;;;;;;12.03;8.53;;;;;;;2.75;61.28;101231.56;1749732;80;21154;-66
2021/01/11 10:59:23;;;;;;;14.07;9.28;;;;;;;2.71;61.14;101236.99;1739985;80;21394;-68
2021/01/11 11:01:52;;;;;;;14.38;8.93;;;;;;;2.69;61.44;101236.36;1726398;82;21157;-72
2021/01/11 11:04:23;;;;;;;16.90;9.43;;;;;;;2.71;60.71;101236.99;1715048;82;21166;-60
2021/01/11 11:06:50;;;;;;;13.50;8.60;;;;;;;2.68;60.69;101234.67;1748946;82;21384;-71
2021/01/11 11:09:19;;;;;;;16.45;9.35;;;;;;;2.68;60.74;101231.98;1713932;82;21219;-67
2021/01/11 11:11:52;;;;;;;16.15;8.75;;;;;;;2.68;60.64;101232.81;1736478;82;21064;-64
2021/01/11 11:14:20;;;;;;;17.77;8.80;;;;;;;2.68;60.50;101229.30;1741895;81;21241;-67
2021/01/11 11:16:48;;;;;;;16.17;9.23;;;;;;;2.67;60.49;101233.02;1740541;82;21185;-68
2021/01/11 11:19:16;;;;;;;15.10;8.95;;;;;;;2.66;60.66;101228.67;1735453;82;21646;-66
2021/01/11 11:21:44;;;;;;;19.40;9.95;;;;;;;2.64;60.95;101226.70;1735852;81;22018;-74
2021/01/11 11:24:14;;;;;;;17.55;9.35;;;;;;;2.67;60.79;101230.33;1716697;82;21306;-72
2021/01/11 11:26:43;;;;;;;17.92;10.32;;;;;;;2.68;60.74;101235.50;1728152;81;21104;-76
2021/01/11 11:29:11;;;;;;;20.62;10.50;;;;;;;2.68;60.84;101226.61;1723072;83;21166;-57
2021/01/11 11:31:43;;;;;;;17.50;10.03;;;;;;;2.71;61.10;101220.87;1725230;81;21089;-56
2021/01/11 11:34:11;;;;;;;21.17;10.03;;;;;;;2.76;61.38;101216.58;1721630;81;21154;-54
2021/01/11 11:36:39;;;;;;;17.30;10.93;;;;;;;2.80;60.79;101224.58;1749406;81;21681;-57
2021/01/11 11:39:07;;;;;;;21.20;10.53;;;;;;;2.77;60.95;101215.55;1736951;82;21573;-55
2021/01/11 11:41:35;;;;;;;19.17;11.53;;;;;;;2.78;60.94;101215.03;1720216;82;21604;-63
2021/01/11 11:44:04;;;;;;;20.27;11.80;;;;;;;2.85;61.04;101224.00;1740933;80;22148;-65